sensor_id;sensor_type;location;lat;lon;timestamp;P1;durP1;ratioP1;P2;durP2;ratioP2
14975;SDS011;7584;60.468;25.126;2022-09-28T00:00:20;8.03;;;3.10;;
14975;SDS011;7584;60.468;25.126;2022-09-28T00:02:46;7.13;;;3.77;;
14975;SDS011;7584;60.468;25.126;2022-09-28T00:05:11;5.33;;;3.30;;
14975;SDS011;7584;60.468;25.126;2022-09-28T00:07:37;5.57;;;3.50;;
14975;SDS011;7584;60.468;25.126;2022-09-28T00:10:02;6.10;;;3.70;;
14975;SDS011;7584;60.468;25.126;2022-09-28T00:12:27;6.80;;;3.90;;
14975;SDS011;7584;60.468;25.126;2022-09-28T00:14:54;6.73;;;4.10;;
14975;SDS011;7584;60.468;25.126;2022-09-28T00:17:20;6.50;;;4.03;;
14975;SDS011;7584;60.468;25.126;2022-09-28T00:19:46;7.77;;;4.20;;
14975;SDS011;7584;60.468;25.126;2022-09-28T00:22:12;5.20;;;3.43;;
14975;SDS011;7584;60.468;25.126;2022-09-28T00:24:37;7.67;;;3.97;;
14975;SDS011;7584;60.468;25.126;2022-09-28T00:27:02;7.17;;;4.03;;
14975;SDS011;7584;60.468;25.126;2022-09-28T00:29:35;5.37;;;3.90;;
14975;SDS011;7584;60.468;25.126;2022-09-28T00:34:29;7.97;;;3.87;;
14975;SDS011;7584;60.468;25.126;2022-09-28T00:36:56;5.53;;;3.67;;
14975;SDS011;7584;60.468;25.126;2022-09-28T00:39:21;5.33;;;4.00;;
14975;SDS011;7584;60.468;25.126;2022-09-28T00:41:46;5.23;;;3.80;;
14975;SDS011;7584;60.468;25.126;2022-09-28T00:46:46;5.60;;;4.40;;
14975;SDS011;7584;60.468;25.126;2022-09-28T00:49:13;5.83;;;4.07;;
14975;SDS011;7584;60.468;25.126;2022-09-28T00:51:39;6.20;;;4.60;;
14975;SDS011;7584;60.468;25.126;2022-09-28T00:54:07;7.67;;;4.67;;
14975;SDS011;7584;60.468;25.126;2022-09-28T00:56:33;8.30;;;4.63;;
14975;SDS011;7584;60.468;25.126;2022-09-28T00:59:00;6.43;;;4.50;;
14975;SDS011;7584;60.468;25.126;2022-09-28T01:01:26;6.63;;;4.93;;
14975;SDS011;7584;60.468;25.126;2022-09-28T01:03:51;8.07;;;5.17;;
14975;SDS011;7584;60.468;25.126;2022-09-28T01:06:21;6.23;;;4.43;;
14975;SDS011;7584;60.468;25.126;2022-09-28T01:08:47;7.20;;;4.63;;
14975;SDS011;7584;60.468;25.126;2022-09-28T01:11:14;8.40;;;4.73;;
14975;SDS011;7584;60.468;25.126;2022-09-28T01:13:39;6.10;;;4.17;;
14975;SDS011;7584;60.468;25.126;2022-09-28T01:23:41;9.03;;;4.90;;
14975;SDS011;7584;60.468;25.126;2022-09-28T01:28:33;7.77;;;4.70;;
14975;SDS011;7584;60.468;25.126;2022-09-28T01:31:11;11.47;;;5.47;;
14975;SDS011;7584;60.468;25.126;2022-09-28T01:36:05;8.13;;;5.50;;
14975;SDS011;7584;60.468;25.126;2022-09-28T01:38:36;8.60;;;5.37;;
14975;SDS011;7584;60.468;25.126;2022-09-28T01:41:02;10.10;;;5.47;;
14975;SDS011;7584;60.468;25.126;2022-09-28T01:43:28;13.23;;;5.73;;
14975;SDS011;7584;60.468;25.126;2022-09-28T01:46:13;9.43;;;5.70;;
14975;SDS011;7584;60.468;25.126;2022-09-28T01:51:07;7.43;;;5.30;;
14975;SDS011;7584;60.468;25.126;2022-09-28T01:53:35;9.83;;;5.30;;
14975;SDS011;7584;60.468;25.126;2022-09-28T01:56:06;9.53;;;5.70;;
14975;SDS011;7584;60.468;25.126;2022-09-28T02:01:02;10.13;;;5.77;;
14975;SDS011;7584;60.468;25.126;2022-09-28T02:03:33;10.43;;;6.10;;
14975;SDS011;7584;60.468;25.126;2022-09-28T02:06:06;8.63;;;5.33;;
14975;SDS011;7584;60.468;25.126;2022-09-28T02:08:32;9.37;;;5.90;;
14975;SDS011;7584;60.468;25.126;2022-09-28T02:11:20;9.30;;;6.10;;
14975;SDS011;7584;60.468;25.126;2022-09-28T02:14:03;11.80;;;6.17;;
14975;SDS011;7584;60.468;25.126;2022-09-28T02:19:00;7.97;;;5.70;;
14975;SDS011;7584;60.468;25.126;2022-09-28T02:21:49;8.37;;;6.17;;
14975;SDS011;7584;60.468;25.126;2022-09-28T02:24:16;10.13;;;5.73;;
14975;SDS011;7584;60.468;25.126;2022-09-28T02:26:43;8.47;;;5.57;;
14975;SDS011;7584;60.468;25.126;2022-09-28T02:29:10;8.50;;;5.53;;
14975;SDS011;7584;60.468;25.126;2022-09-28T02:31:35;10.03;;;5.90;;
14975;SDS011;7584;60.468;25.126;2022-09-28T02:34:00;8.50;;;6.30;;
14975;SDS011;7584;60.468;25.126;2022-09-28T02:36:26;10.63;;;5.90;;
14975;SDS011;7584;60.468;25.126;2022-09-28T02:38:52;8.07;;;5.93;;
14975;SDS011;7584;60.468;25.126;2022-09-28T02:43:53;8.93;;;5.90;;
14975;SDS011;7584;60.468;25.126;2022-09-28T02:49:13;11.20;;;6.23;;
14975;SDS011;7584;60.468;25.126;2022-09-28T03:06:45;9.27;;;5.50;;
14975;SDS011;7584;60.468;25.126;2022-09-28T03:11:37;10.27;;;5.57;;
14975;SDS011;7584;60.468;25.126;2022-09-28T03:14:04;9.43;;;5.97;;
14975;SDS011;7584;60.468;25.126;2022-09-28T03:16:29;7.40;;;5.57;;
14975;SDS011;7584;60.468;25.126;2022-09-28T03:18:56;9.23;;;6.17;;
14975;SDS011;7584;60.468;25.126;2022-09-28T03:21:22;9.20;;;6.00;;
14975;SDS011;7584;60.468;25.126;2022-09-28T03:23:47;8.10;;;5.57;;
14975;SDS011;7584;60.468;25.126;2022-09-28T03:26:13;5.63;;;4.93;;
14975;SDS011;7584;60.468;25.126;2022-09-28T03:28:38;8.60;;;5.90;;
14975;SDS011;7584;60.468;25.126;2022-09-28T03:31:03;8.83;;;5.80;;
14975;SDS011;7584;60.468;25.126;2022-09-28T03:33:29;8.83;;;5.53;;
14975;SDS011;7584;60.468;25.126;2022-09-28T03:35:54;6.00;;;4.87;;
14975;SDS011;7584;60.468;25.126;2022-09-28T03:38:20;6.93;;;5.53;;
14975;SDS011;7584;60.468;25.126;2022-09-28T03:40:52;7.80;;;5.17;;
14975;SDS011;7584;60.468;25.126;2022-09-28T03:43:17;7.63;;;6.10;;
14975;SDS011;7584;60.468;25.126;2022-09-28T03:45:43;7.00;;;5.80;;
14975;SDS011;7584;60.468;25.126;2022-09-28T03:48:08;8.73;;;5.83;;
14975;SDS011;7584;60.468;25.126;2022-09-28T03:50:33;10.57;;;6.03;;
14975;SDS011;7584;60.468;25.126;2022-09-28T03:53:02;8.60;;;5.57;;
14975;SDS011;7584;60.468;25.126;2022-09-28T03:55:27;8.63;;;5.43;;
14975;SDS011;7584;60.468;25.126;2022-09-28T03:57:53;7.30;;;5.10;;
14975;SDS011;7584;60.468;25.126;2022-09-28T04:00:19;7.97;;;5.70;;
14975;SDS011;7584;60.468;25.126;2022-09-28T04:02:45;8.93;;;5.77;;
14975;SDS011;7584;60.468;25.126;2022-09-28T04:05:10;6.90;;;5.47;;
14975;SDS011;7584;60.468;25.126;2022-09-28T04:07:35;7.17;;;5.63;;
14975;SDS011;7584;60.468;25.126;2022-09-28T04:10:00;13.53;;;6.27;;
14975;SDS011;7584;60.468;25.126;2022-09-28T04:12:26;7.17;;;5.60;;
14975;SDS011;7584;60.468;25.126;2022-09-28T04:14:51;7.17;;;5.43;;
14975;SDS011;7584;60.468;25.126;2022-09-28T04:17:16;6.07;;;4.83;;
14975;SDS011;7584;60.468;25.126;2022-09-28T04:19:42;8.53;;;5.63;;
14975;SDS011;7584;60.468;25.126;2022-09-28T04:22:07;7.60;;;5.40;;
14975;SDS011;7584;60.468;25.126;2022-09-28T04:24:32;7.40;;;5.40;;
14975;SDS011;7584;60.468;25.126;2022-09-28T04:26:58;7.63;;;5.13;;
14975;SDS011;7584;60.468;25.126;2022-09-28T04:29:43;7.40;;;5.20;;
14975;SDS011;7584;60.468;25.126;2022-09-28T04:32:08;7.97;;;5.20;;
14975;SDS011;7584;60.468;25.126;2022-09-28T04:34:34;7.73;;;5.40;;
14975;SDS011;7584;60.468;25.126;2022-09-28T04:36:59;6.97;;;4.90;;
14975;SDS011;7584;60.468;25.126;2022-09-28T04:39:24;9.37;;;5.40;;
14975;SDS011;7584;60.468;25.126;2022-09-28T04:41:50;6.53;;;5.07;;
14975;SDS011;7584;60.468;25.126;2022-09-28T04:44:15;7.83;;;5.23;;
14975;SDS011;7584;60.468;25.126;2022-09-28T04:46:40;8.13;;;5.27;;
14975;SDS011;7584;60.468;25.126;2022-09-28T04:49:05;8.10;;;5.67;;
14975;SDS011;7584;60.468;25.126;2022-09-28T04:51:31;7.13;;;5.67;;
14975;SDS011;7584;60.468;25.126;2022-09-28T04:53:56;5.40;;;4.60;;
14975;SDS011;7584;60.468;25.126;2022-09-28T04:56:22;6.17;;;4.73;;
14975;SDS011;7584;60.468;25.126;2022-09-28T04:58:47;8.23;;;5.13;;
14975;SDS011;7584;60.468;25.126;2022-09-28T05:01:14;6.13;;;4.43;;
14975;SDS011;7584;60.468;25.126;2022-09-28T05:03:40;6.10;;;4.83;;
14975;SDS011;7584;60.468;25.126;2022-09-28T05:06:05;8.53;;;5.10;;
14975;SDS011;7584;60.468;25.126;2022-09-28T05:08:31;7.67;;;4.20;;
14975;SDS011;7584;60.468;25.126;2022-09-28T05:11:01;6.20;;;4.70;;
14975;SDS011;7584;60.468;25.126;2022-09-28T05:13:27;6.93;;;4.90;;
14975;SDS011;7584;60.468;25.126;2022-09-28T05:15:53;4.73;;;3.93;;
14975;SDS011;7584;60.468;25.126;2022-09-28T05:18:19;6.20;;;4.70;;
14975;SDS011;7584;60.468;25.126;2022-09-28T05:20:44;7.40;;;4.93;;
14975;SDS011;7584;60.468;25.126;2022-09-28T05:23:10;7.53;;;4.57;;
14975;SDS011;7584;60.468;25.126;2022-09-28T05:25:36;7.10;;;4.50;;
14975;SDS011;7584;60.468;25.126;2022-09-28T05:28:01;7.47;;;4.30;;
14975;SDS011;7584;60.468;25.126;2022-09-28T05:30:27;5.00;;;3.93;;
14975;SDS011;7584;60.468;25.126;2022-09-28T05:32:53;7.90;;;3.80;;
14975;SDS011;7584;60.468;25.126;2022-09-28T05:35:18;5.27;;;4.27;;
14975;SDS011;7584;60.468;25.126;2022-09-28T05:37:43;5.17;;;4.40;;
14975;SDS011;7584;60.468;25.126;2022-09-28T05:40:09;4.67;;;4.27;;
14975;SDS011;7584;60.468;25.126;2022-09-28T05:42:34;6.10;;;4.23;;
14975;SDS011;7584;60.468;25.126;2022-09-28T05:45:00;6.13;;;4.10;;
14975;SDS011;7584;60.468;25.126;2022-09-28T05:47:27;4.27;;;3.77;;
14975;SDS011;7584;60.468;25.126;2022-09-28T05:49:52;7.43;;;4.40;;
14975;SDS011;7584;60.468;25.126;2022-09-28T05:52:18;7.47;;;4.27;;
14975;SDS011;7584;60.468;25.126;2022-09-28T05:54:44;10.53;;;4.53;;
14975;SDS011;7584;60.468;25.126;2022-09-28T05:57:09;6.77;;;3.80;;
14975;SDS011;7584;60.468;25.126;2022-09-28T05:59:34;5.80;;;3.47;;
14975;SDS011;7584;60.468;25.126;2022-09-28T06:02:00;6.07;;;3.73;;
14975;SDS011;7584;60.468;25.126;2022-09-28T06:04:25;5.67;;;3.60;;
14975;SDS011;7584;60.468;25.126;2022-09-28T06:06:51;6.87;;;3.60;;
14975;SDS011;7584;60.468;25.126;2022-09-28T06:09:16;4.97;;;3.60;;
14975;SDS011;7584;60.468;25.126;2022-09-28T06:11:41;7.77;;;3.77;;
14975;SDS011;7584;60.468;25.126;2022-09-28T06:14:07;5.07;;;3.70;;
14975;SDS011;7584;60.468;25.126;2022-09-28T06:16:32;5.17;;;3.77;;
14975;SDS011;7584;60.468;25.126;2022-09-28T06:18:58;4.50;;;3.80;;
14975;SDS011;7584;60.468;25.126;2022-09-28T06:21:24;7.40;;;3.53;;
14975;SDS011;7584;60.468;25.126;2022-09-28T06:23:49;6.67;;;3.20;;
14975;SDS011;7584;60.468;25.126;2022-09-28T06:26:15;5.80;;;4.20;;
14975;SDS011;7584;60.468;25.126;2022-09-28T06:28:40;4.77;;;3.23;;
14975;SDS011;7584;60.468;25.126;2022-09-28T06:31:05;4.23;;;3.10;;
14975;SDS011;7584;60.468;25.126;2022-09-28T06:33:31;5.00;;;3.60;;
14975;SDS011;7584;60.468;25.126;2022-09-28T06:35:57;4.57;;;3.07;;
14975;SDS011;7584;60.468;25.126;2022-09-28T06:38:22;7.27;;;3.40;;
14975;SDS011;7584;60.468;25.126;2022-09-28T06:40:48;5.83;;;3.53;;
14975;SDS011;7584;60.468;25.126;2022-09-28T06:43:13;5.33;;;3.10;;
14975;SDS011;7584;60.468;25.126;2022-09-28T06:45:39;7.90;;;4.03;;
14975;SDS011;7584;60.468;25.126;2022-09-28T06:48:05;6.03;;;3.30;;
14975;SDS011;7584;60.468;25.126;2022-09-28T06:50:32;5.53;;;2.73;;
14975;SDS011;7584;60.468;25.126;2022-09-28T06:52:57;6.50;;;2.73;;
14975;SDS011;7584;60.468;25.126;2022-09-28T06:55:23;8.67;;;3.43;;
14975;SDS011;7584;60.468;25.126;2022-09-28T06:57:56;4.63;;;2.77;;
14975;SDS011;7584;60.468;25.126;2022-09-28T07:00:22;6.20;;;2.70;;
14975;SDS011;7584;60.468;25.126;2022-09-28T07:02:47;3.27;;;2.80;;
14975;SDS011;7584;60.468;25.126;2022-09-28T07:05:12;7.50;;;2.80;;
14975;SDS011;7584;60.468;25.126;2022-09-28T07:07:38;2.97;;;2.60;;
14975;SDS011;7584;60.468;25.126;2022-09-28T07:10:04;5.60;;;2.37;;
14975;SDS011;7584;60.468;25.126;2022-09-28T07:12:30;6.67;;;2.97;;
14975;SDS011;7584;60.468;25.126;2022-09-28T07:14:57;5.40;;;3.13;;
14975;SDS011;7584;60.468;25.126;2022-09-28T07:17:22;5.47;;;2.67;;
14975;SDS011;7584;60.468;25.126;2022-09-28T07:19:48;4.07;;;2.97;;
14975;SDS011;7584;60.468;25.126;2022-09-28T07:22:16;3.30;;;2.57;;
14975;SDS011;7584;60.468;25.126;2022-09-28T07:24:42;3.27;;;2.20;;
14975;SDS011;7584;60.468;25.126;2022-09-28T07:27:08;4.20;;;3.07;;
14975;SDS011;7584;60.468;25.126;2022-09-28T07:29:34;5.07;;;2.57;;
14975;SDS011;7584;60.468;25.126;2022-09-28T07:31:59;4.87;;;2.80;;
14975;SDS011;7584;60.468;25.126;2022-09-28T07:34:24;4.73;;;2.60;;
14975;SDS011;7584;60.468;25.126;2022-09-28T07:36:49;6.27;;;2.73;;
14975;SDS011;7584;60.468;25.126;2022-09-28T07:39:15;6.20;;;2.77;;
14975;SDS011;7584;60.468;25.126;2022-09-28T07:41:41;6.53;;;2.40;;
14975;SDS011;7584;60.468;25.126;2022-09-28T07:44:07;3.47;;;2.47;;
14975;SDS011;7584;60.468;25.126;2022-09-28T07:46:32;3.43;;;2.77;;
14975;SDS011;7584;60.468;25.126;2022-09-28T07:48:58;3.90;;;2.60;;
14975;SDS011;7584;60.468;25.126;2022-09-28T07:51:23;5.60;;;2.33;;
14975;SDS011;7584;60.468;25.126;2022-09-28T07:53:48;4.77;;;2.60;;
14975;SDS011;7584;60.468;25.126;2022-09-28T07:56:14;6.80;;;2.70;;
14975;SDS011;7584;60.468;25.126;2022-09-28T07:58:41;2.77;;;2.50;;
14975;SDS011;7584;60.468;25.126;2022-09-28T08:01:08;4.83;;;2.87;;
14975;SDS011;7584;60.468;25.126;2022-09-28T08:03:34;3.60;;;2.53;;
14975;SDS011;7584;60.468;25.126;2022-09-28T08:06:01;5.00;;;2.37;;
14975;SDS011;7584;60.468;25.126;2022-09-28T08:08:27;3.67;;;2.33;;
14975;SDS011;7584;60.468;25.126;2022-09-28T08:10:54;2.57;;;2.37;;
14975;SDS011;7584;60.468;25.126;2022-09-28T08:13:20;3.40;;;2.10;;
14975;SDS011;7584;60.468;25.126;2022-09-28T08:15:45;3.73;;;2.50;;
14975;SDS011;7584;60.468;25.126;2022-09-28T08:18:12;2.90;;;2.47;;
14975;SDS011;7584;60.468;25.126;2022-09-28T08:20:37;2.63;;;2.10;;
14975;SDS011;7584;60.468;25.126;2022-09-28T08:23:22;2.67;;;2.07;;
14975;SDS011;7584;60.468;25.126;2022-09-28T08:25:48;2.53;;;2.17;;
14975;SDS011;7584;60.468;25.126;2022-09-28T08:28:14;4.03;;;2.20;;
14975;SDS011;7584;60.468;25.126;2022-09-28T08:30:43;4.53;;;2.40;;
14975;SDS011;7584;60.468;25.126;2022-09-28T08:33:09;4.77;;;2.37;;
14975;SDS011;7584;60.468;25.126;2022-09-28T08:35:35;3.67;;;2.10;;
14975;SDS011;7584;60.468;25.126;2022-09-28T08:38:00;2.80;;;2.27;;
14975;SDS011;7584;60.468;25.126;2022-09-28T08:40:27;3.67;;;2.10;;
14975;SDS011;7584;60.468;25.126;2022-09-28T08:43:01;2.13;;;1.80;;
14975;SDS011;7584;60.468;25.126;2022-09-28T08:45:28;2.23;;;1.83;;
14975;SDS011;7584;60.468;25.126;2022-09-28T08:48:00;3.43;;;2.10;;
14975;SDS011;7584;60.468;25.126;2022-09-28T08:50:53;3.13;;;2.17;;
14975;SDS011;7584;60.468;25.126;2022-09-28T08:53:25;1.87;;;1.60;;
14975;SDS011;7584;60.468;25.126;2022-09-28T08:55:52;3.37;;;1.83;;
14975;SDS011;7584;60.468;25.126;2022-09-28T08:58:22;3.70;;;1.70;;
14975;SDS011;7584;60.468;25.126;2022-09-28T09:00:50;2.40;;;1.77;;
14975;SDS011;7584;60.468;25.126;2022-09-28T09:03:19;3.90;;;2.07;;
14975;SDS011;7584;60.468;25.126;2022-09-28T09:05:59;3.40;;;2.00;;
14975;SDS011;7584;60.468;25.126;2022-09-28T09:18:55;2.23;;;1.80;;
14975;SDS011;7584;60.468;25.126;2022-09-28T09:26:15;2.63;;;1.50;;
14975;SDS011;7584;60.468;25.126;2022-09-28T09:33:58;2.60;;;1.50;;
14975;SDS011;7584;60.468;25.126;2022-09-28T09:39:10;3.08;;;1.38;;
14975;SDS011;7584;60.468;25.126;2022-09-28T09:41:45;5.82;;;1.90;;
14975;SDS011;7584;60.468;25.126;2022-09-28T09:44:23;2.08;;;1.60;;
14975;SDS011;7584;60.468;25.126;2022-09-28T09:46:59;3.07;;;1.40;;
14975;SDS011;7584;60.468;25.126;2022-09-28T09:52:35;3.30;;;1.23;;
14975;SDS011;7584;60.468;25.126;2022-09-28T09:55:04;3.70;;;1.52;;
14975;SDS011;7584;60.468;25.126;2022-09-28T09:57:39;1.52;;;1.42;;
14975;SDS011;7584;60.468;25.126;2022-09-28T10:00:10;1.65;;;1.27;;
14975;SDS011;7584;60.468;25.126;2022-09-28T10:02:37;1.53;;;1.43;;
14975;SDS011;7584;60.468;25.126;2022-09-28T10:08:22;5.00;;;1.77;;
14975;SDS011;7584;60.468;25.126;2022-09-28T10:12:48;2.77;;;1.37;;
14975;SDS011;7584;60.468;25.126;2022-09-28T10:15:16;1.53;;;1.43;;
14975;SDS011;7584;60.468;25.126;2022-09-28T10:17:43;2.97;;;1.57;;
14975;SDS011;7584;60.468;25.126;2022-09-28T10:20:12;1.60;;;1.27;;
14975;SDS011;7584;60.468;25.126;2022-09-28T10:22:38;2.20;;;1.40;;
14975;SDS011;7584;60.468;25.126;2022-09-28T10:25:04;3.05;;;1.30;;
14975;SDS011;7584;60.468;25.126;2022-09-28T10:27:30;2.27;;;1.37;;
14975;SDS011;7584;60.468;25.126;2022-09-28T10:30:02;1.83;;;1.37;;
14975;SDS011;7584;60.468;25.126;2022-09-28T10:32:40;2.22;;;1.27;;
14975;SDS011;7584;60.468;25.126;2022-09-28T10:43:05;1.87;;;1.50;;
14975;SDS011;7584;60.468;25.126;2022-09-28T10:45:35;3.67;;;1.70;;
14975;SDS011;7584;60.468;25.126;2022-09-28T10:48:05;3.43;;;1.67;;
14975;SDS011;7584;60.468;25.126;2022-09-28T10:50:36;3.33;;;1.40;;
14975;SDS011;7584;60.468;25.126;2022-09-28T10:53:10;2.80;;;1.57;;
14975;SDS011;7584;60.468;25.126;2022-09-28T10:55:35;3.53;;;1.40;;
14975;SDS011;7584;60.468;25.126;2022-09-28T10:58:16;1.93;;;1.50;;
14975;SDS011;7584;60.468;25.126;2022-09-28T11:00:42;2.73;;;1.70;;
14975;SDS011;7584;60.468;25.126;2022-09-28T11:06:03;2.50;;;1.50;;
14975;SDS011;7584;60.468;25.126;2022-09-28T11:08:34;3.30;;;1.50;;
14975;SDS011;7584;60.468;25.126;2022-09-28T11:11:01;2.60;;;1.47;;
14975;SDS011;7584;60.468;25.126;2022-09-28T11:13:27;1.40;;;1.17;;
14975;SDS011;7584;60.468;25.126;2022-09-28T11:15:52;3.27;;;1.20;;
14975;SDS011;7584;60.468;25.126;2022-09-28T11:18:19;1.73;;;1.30;;
14975;SDS011;7584;60.468;25.126;2022-09-28T11:20:46;2.67;;;1.57;;
14975;SDS011;7584;60.468;25.126;2022-09-28T11:23:20;2.67;;;1.40;;
14975;SDS011;7584;60.468;25.126;2022-09-28T11:26:04;3.03;;;1.30;;
14975;SDS011;7584;60.468;25.126;2022-09-28T11:28:31;1.63;;;1.10;;
14975;SDS011;7584;60.468;25.126;2022-09-28T11:30:57;1.97;;;1.30;;
14975;SDS011;7584;60.468;25.126;2022-09-28T11:33:39;1.73;;;1.00;;
14975;SDS011;7584;60.468;25.126;2022-09-28T11:44:01;2.03;;;1.33;;
14975;SDS011;7584;60.468;25.126;2022-09-28T11:51:44;2.40;;;1.37;;
14975;SDS011;7584;60.468;25.126;2022-09-28T11:56:42;2.47;;;1.13;;
14975;SDS011;7584;60.468;25.126;2022-09-28T11:59:53;2.78;;;1.50;;
14975;SDS011;7584;60.468;25.126;2022-09-28T12:02:19;2.92;;;1.20;;
14975;SDS011;7584;60.468;25.126;2022-09-28T12:07:31;3.03;;;1.30;;
14975;SDS011;7584;60.468;25.126;2022-09-28T12:09:59;3.15;;;1.20;;
14975;SDS011;7584;60.468;25.126;2022-09-28T12:14:54;3.08;;;0.93;;
14975;SDS011;7584;60.468;25.126;2022-09-28T12:17:40;1.80;;;0.77;;
14975;SDS011;7584;60.468;25.126;2022-09-28T12:22:55;3.03;;;0.98;;
14975;SDS011;7584;60.468;25.126;2022-09-28T12:25:23;4.63;;;0.80;;
14975;SDS011;7584;60.468;25.126;2022-09-28T12:27:50;6.85;;;1.20;;
14975;SDS011;7584;60.468;25.126;2022-09-28T12:30:18;2.20;;;1.02;;
14975;SDS011;7584;60.468;25.126;2022-09-28T12:35:50;1.23;;;1.10;;
14975;SDS011;7584;60.468;25.126;2022-09-28T12:41:06;1.40;;;0.90;;
14975;SDS011;7584;60.468;25.126;2022-09-28T12:51:47;2.17;;;1.33;;
14975;SDS011;7584;60.468;25.126;2022-09-28T13:09:25;2.53;;;1.60;;
14975;SDS011;7584;60.468;25.126;2022-09-28T13:11:54;2.53;;;1.80;;
14975;SDS011;7584;60.468;25.126;2022-09-28T13:16:51;2.13;;;1.70;;
14975;SDS011;7584;60.468;25.126;2022-09-28T13:24:23;3.30;;;1.83;;
14975;SDS011;7584;60.468;25.126;2022-09-28T13:26:50;3.03;;;1.70;;
14975;SDS011;7584;60.468;25.126;2022-09-28T13:29:18;3.67;;;2.23;;
14975;SDS011;7584;60.468;25.126;2022-09-28T13:31:48;3.83;;;1.77;;
14975;SDS011;7584;60.468;25.126;2022-09-28T13:34:16;4.83;;;2.13;;
14975;SDS011;7584;60.468;25.126;2022-09-28T13:36:44;4.80;;;2.03;;
14975;SDS011;7584;60.468;25.126;2022-09-28T13:41:53;2.67;;;1.73;;
14975;SDS011;7584;60.468;25.126;2022-09-28T13:44:26;2.33;;;2.03;;
14975;SDS011;7584;60.468;25.126;2022-09-28T13:49:44;3.83;;;2.00;;
14975;SDS011;7584;60.468;25.126;2022-09-28T13:52:30;3.57;;;2.00;;
14975;SDS011;7584;60.468;25.126;2022-09-28T13:57:42;3.17;;;2.13;;
14975;SDS011;7584;60.468;25.126;2022-09-28T14:00:31;2.20;;;1.77;;
14975;SDS011;7584;60.468;25.126;2022-09-28T14:05:45;5.80;;;1.80;;
14975;SDS011;7584;60.468;25.126;2022-09-28T14:08:22;2.00;;;1.80;;
14975;SDS011;7584;60.468;25.126;2022-09-28T14:10:51;2.70;;;2.10;;
14975;SDS011;7584;60.468;25.126;2022-09-28T14:16:21;5.33;;;2.57;;
14975;SDS011;7584;60.468;25.126;2022-09-28T14:18:51;4.27;;;3.60;;
14975;SDS011;7584;60.468;25.126;2022-09-28T14:21:29;4.33;;;3.90;;
14975;SDS011;7584;60.468;25.126;2022-09-28T14:24:01;3.30;;;2.40;;
14975;SDS011;7584;60.468;25.126;2022-09-28T14:29:31;3.97;;;2.03;;
14975;SDS011;7584;60.468;25.126;2022-09-28T14:31:52;2.07;;;1.70;;
14975;SDS011;7584;60.468;25.126;2022-09-28T14:34:28;4.17;;;2.17;;
14975;SDS011;7584;60.468;25.126;2022-09-28T14:36:54;2.70;;;2.17;;
14975;SDS011;7584;60.468;25.126;2022-09-28T14:39:38;3.13;;;1.80;;
14975;SDS011;7584;60.468;25.126;2022-09-28T14:42:26;2.20;;;1.60;;
14975;SDS011;7584;60.468;25.126;2022-09-28T14:47:24;2.13;;;1.50;;
14975;SDS011;7584;60.468;25.126;2022-09-28T14:49:58;2.03;;;1.83;;
14975;SDS011;7584;60.468;25.126;2022-09-28T14:52:37;2.70;;;1.43;;
14975;SDS011;7584;60.468;25.126;2022-09-28T14:55:06;1.93;;;1.40;;
14975;SDS011;7584;60.468;25.126;2022-09-28T14:57:35;1.93;;;1.27;;
14975;SDS011;7584;60.468;25.126;2022-09-28T15:00:22;3.17;;;1.50;;
14975;SDS011;7584;60.468;25.126;2022-09-28T15:02:50;3.17;;;1.73;;
14975;SDS011;7584;60.468;25.126;2022-09-28T15:05:18;7.20;;;2.27;;
14975;SDS011;7584;60.468;25.126;2022-09-28T15:07:47;3.20;;;2.10;;
14975;SDS011;7584;60.468;25.126;2022-09-28T15:10:22;3.13;;;2.37;;
14975;SDS011;7584;60.468;25.126;2022-09-28T15:12:48;2.93;;;2.17;;
14975;SDS011;7584;60.468;25.126;2022-09-28T15:20:45;3.40;;;2.47;;
14975;SDS011;7584;60.468;25.126;2022-09-28T15:25:52;4.30;;;2.30;;
14975;SDS011;7584;60.468;25.126;2022-09-28T15:28:19;2.30;;;2.10;;
14975;SDS011;7584;60.468;25.126;2022-09-28T15:30:46;3.83;;;2.67;;
14975;SDS011;7584;60.468;25.126;2022-09-28T15:33:24;3.07;;;2.43;;
14975;SDS011;7584;60.468;25.126;2022-09-28T15:36:11;3.57;;;2.60;;
14975;SDS011;7584;60.468;25.126;2022-09-28T15:38:40;4.57;;;2.77;;
14975;SDS011;7584;60.468;25.126;2022-09-28T15:41:06;3.17;;;2.10;;
14975;SDS011;7584;60.468;25.126;2022-09-28T15:43:33;2.90;;;2.10;;
14975;SDS011;7584;60.468;25.126;2022-09-28T15:46:05;4.53;;;2.90;;
14975;SDS011;7584;60.468;25.126;2022-09-28T15:51:04;3.80;;;2.50;;
14975;SDS011;7584;60.468;25.126;2022-09-28T15:53:34;3.10;;;2.07;;
14975;SDS011;7584;60.468;25.126;2022-09-28T15:56:01;4.43;;;2.07;;
14975;SDS011;7584;60.468;25.126;2022-09-28T15:58:29;4.20;;;1.90;;
14975;SDS011;7584;60.468;25.126;2022-09-28T16:03:38;1.70;;;1.60;;
14975;SDS011;7584;60.468;25.126;2022-09-28T16:06:05;4.00;;;1.87;;
14975;SDS011;7584;60.468;25.126;2022-09-28T16:08:41;2.30;;;1.90;;
14975;SDS011;7584;60.468;25.126;2022-09-28T16:11:11;3.07;;;2.10;;
14975;SDS011;7584;60.468;25.126;2022-09-28T16:14:00;2.97;;;2.13;;
14975;SDS011;7584;60.468;25.126;2022-09-28T16:16:32;4.37;;;2.30;;
14975;SDS011;7584;60.468;25.126;2022-09-28T16:18:59;3.60;;;2.00;;
14975;SDS011;7584;60.468;25.126;2022-09-28T16:21:38;4.23;;;3.03;;
14975;SDS011;7584;60.468;25.126;2022-09-28T16:24:13;2.30;;;2.10;;
14975;SDS011;7584;60.468;25.126;2022-09-28T16:26:43;2.57;;;2.20;;
14975;SDS011;7584;60.468;25.126;2022-09-28T16:29:22;2.53;;;2.20;;
14975;SDS011;7584;60.468;25.126;2022-09-28T16:31:49;2.80;;;2.23;;
14975;SDS011;7584;60.468;25.126;2022-09-28T16:34:18;4.40;;;2.63;;
14975;SDS011;7584;60.468;25.126;2022-09-28T16:36:47;4.63;;;2.63;;
14975;SDS011;7584;60.468;25.126;2022-09-28T16:39:16;3.53;;;2.80;;
14975;SDS011;7584;60.468;25.126;2022-09-28T16:41:46;6.40;;;2.80;;
14975;SDS011;7584;60.468;25.126;2022-09-28T16:44:20;3.67;;;2.50;;
14975;SDS011;7584;60.468;25.126;2022-09-28T16:46:47;3.63;;;2.93;;
14975;SDS011;7584;60.468;25.126;2022-09-28T16:49:13;3.80;;;2.27;;
14975;SDS011;7584;60.468;25.126;2022-09-28T16:51:43;6.57;;;2.80;;
14975;SDS011;7584;60.468;25.126;2022-09-28T16:54:13;4.50;;;2.50;;
14975;SDS011;7584;60.468;25.126;2022-09-28T16:56:58;5.87;;;3.13;;
14975;SDS011;7584;60.468;25.126;2022-09-28T16:59:23;3.60;;;2.10;;
14975;SDS011;7584;60.468;25.126;2022-09-28T17:01:49;3.90;;;2.33;;
14975;SDS011;7584;60.468;25.126;2022-09-28T17:04:14;4.57;;;2.20;;
14975;SDS011;7584;60.468;25.126;2022-09-28T17:06:39;2.43;;;1.97;;
14975;SDS011;7584;60.468;25.126;2022-09-28T17:09:04;2.20;;;1.80;;
14975;SDS011;7584;60.468;25.126;2022-09-28T17:11:31;2.70;;;1.80;;
14975;SDS011;7584;60.468;25.126;2022-09-28T17:13:56;2.57;;;1.73;;
14975;SDS011;7584;60.468;25.126;2022-09-28T17:16:22;4.67;;;1.90;;
14975;SDS011;7584;60.468;25.126;2022-09-28T17:18:50;5.07;;;1.70;;
14975;SDS011;7584;60.468;25.126;2022-09-28T17:21:17;3.03;;;1.73;;
14975;SDS011;7584;60.468;25.126;2022-09-28T17:23:43;2.23;;;1.40;;
14975;SDS011;7584;60.468;25.126;2022-09-28T17:26:14;2.37;;;1.47;;
14975;SDS011;7584;60.468;25.126;2022-09-28T17:28:41;1.53;;;1.17;;
14975;SDS011;7584;60.468;25.126;2022-09-28T17:31:08;1.37;;;1.10;;
14975;SDS011;7584;60.468;25.126;2022-09-28T17:33:37;2.60;;;1.17;;
14975;SDS011;7584;60.468;25.126;2022-09-28T17:36:03;1.27;;;1.07;;
14975;SDS011;7584;60.468;25.126;2022-09-28T17:38:29;1.37;;;1.00;;
14975;SDS011;7584;60.468;25.126;2022-09-28T17:40:54;1.83;;;1.30;;
14975;SDS011;7584;60.468;25.126;2022-09-28T17:43:20;1.47;;;1.10;;
14975;SDS011;7584;60.468;25.126;2022-09-28T17:45:46;1.67;;;1.00;;
14975;SDS011;7584;60.468;25.126;2022-09-28T17:48:12;1.47;;;1.13;;
14975;SDS011;7584;60.468;25.126;2022-09-28T17:50:39;2.33;;;1.00;;
14975;SDS011;7584;60.468;25.126;2022-09-28T17:53:06;1.60;;;1.03;;
14975;SDS011;7584;60.468;25.126;2022-09-28T17:55:33;1.80;;;0.80;;
14975;SDS011;7584;60.468;25.126;2022-09-28T17:57:59;1.90;;;1.00;;